Meteo Giornale » Osservazioni meteo Stati Uniti (USA) » Richmond
ore: 01:54 - Osservazioni Meteo Richmond
Lat. 37° 30' N Lon. 77° 19' W Alt. 51 metri s.l.m.
24 °C
Poco Nuvoloso
Temp. 24 Ore
23 °C
34 °C
Nord
5.5 Km/h
Dew point 22 °C
Umidità 88 %
Visibilità 14 Km
Il sole sorge alle ore 06:39
Il sole tramonta alle ore 19:38
| Data e Ora | Cielo e Fenomeni | T °C | DP °C | Um. % | Pres. hPa | Vis. km | Vento km/h | |
|---|---|---|---|---|---|---|---|---|
| Oggi h: 01:54 | Poco Nuvoloso | 24 | 22 | 88 | 1018 | 14 | N 5.5 | |
| Oggi h: 00:54 | Poco Nuvoloso | 24 | 22 | 88 | 1018 | 14 | N 5.5 | |
| Ieri h: 23:54 | Nuvoloso | 24 | 22 | 88 | 1018 | 10 | S 7.4 | |
| Ieri h: 22:54 | Molto Nuvoloso | 24 | 22 | 88 | 1018 | 10 | S 7.4 | |
| Ieri h: 21:54 | Molto Nuvoloso | 25 | 22 | 83 | 1018 | 10 | N 0 | |
| Ieri h: 20:54 | Molto Nuvoloso | 26 | 22 | 78 | 1018 | 10 | E 11.1 | |
| Ieri h: 19:54 | Molto Nuvoloso | 28 | 21 | 65 | 1018 | 10 | NE 13 | |
| Ieri h: 18:54 | Nuvoloso | 31 | 21 | 55 | 1017 | 10 | N 13 | |
| Ieri h: 17:54 | Molto Nuvoloso | 32 | 19 | 46 | 1017 | 10 | N/NE 13 | |
| Ieri h: 16:54 | Molto Nuvoloso | 33 | 21 | 49 | 1017 | 10 | N 13 | |
| Ieri h: 15:54 | Nuvoloso | 34 | 19 | 41 | 1017 | 10 | N/NO 14.8 | |
| Ieri h: 14:54 | Nuvoloso | 32 | 20 | 49 | 1018 | 10 | N 9.3 | |
| Ieri h: 13:54 | Nuvoloso | 33 | 19 | 43 | 1018 | 10 | O/NO 9.3 | |
| Ieri h: 12:54 | Poco Nuvoloso | 32 | 21 | 52 | 1019 | 10 | N 5.5 | |
| Ieri h: 11:54 | Poco Nuvoloso | 31 | 22 | 58 | 1019 | 14 | N 0 | |
| Ieri h: 10:54 | Poco Nuvoloso | 30 | 21 | 58 | 1019 | 10 | N 5.5 | |
| Ieri h: 09:54 | Poco Nuvoloso | 28 | 22 | 69 | 1019 | 10 | NO 9.3 | |
| Ieri h: 08:54 | Poco Nuvoloso | 27 | 21 | 69 | 1019 | 14 | O 9.3 | |
| Ieri h: 07:54 | Poco Nuvoloso | 24 | 21 | 83 | 1019 | 13 | S/SO 13 | |
| Ieri h: 06:54 | Molto Nuvoloso | 24 | 21 | 83 | 1019 | 14 | O/SO 9.3 | |
| Ieri h: 05:54 | Coperto | 24 | 21 | 83 | 1018 | 10 | S/SO 9.3 | |
| Ieri h: 04:54 | Poco Nuvoloso | 24 | 21 | 83 | 1018 | 10 | SO 9.3 | |
| Ieri h: 03:54 | Nuvoloso | 24 | 21 | 83 | 1018 | 10 | SO 9.3 | |
| Ieri h: 02:54 | Coperto | 23 | 21 | 88 | 1019 | 10 | S/SO 7.4 | |



